createdAt,value
2018-08-09T00:00:02.288Z,11.87
2018-08-09T00:02:30.847Z,10.87
2018-08-09T00:04:59.189Z,11.63
2018-08-09T00:07:27.526Z,12.27
2018-08-09T00:09:55.915Z,12.47
2018-08-09T00:12:24.267Z,11.67
2018-08-09T00:14:52.588Z,11.57
2018-08-09T00:17:21.106Z,13.20
2018-08-09T00:19:49.544Z,10.90
2018-08-09T00:22:17.946Z,12.00
2018-08-09T00:24:46.571Z,12.07
2018-08-09T00:27:14.974Z,12.10
2018-08-09T00:29:43.359Z,12.93
2018-08-09T00:32:11.942Z,14.63
2018-08-09T00:34:40.338Z,13.33
2018-08-09T00:37:08.739Z,14.17
2018-08-09T00:39:37.298Z,14.73
2018-08-09T00:42:05.743Z,13.87
2018-08-09T00:44:34.137Z,13.90
2018-08-09T00:47:02.590Z,13.43
2018-08-09T00:49:30.973Z,13.17
2018-08-09T00:51:59.398Z,13.30
2018-08-09T00:54:27.798Z,14.13
2018-08-09T00:56:56.238Z,13.40
2018-08-09T00:59:24.669Z,14.97
2018-08-09T01:01:53.052Z,13.13
2018-08-09T01:04:21.654Z,13.03
2018-08-09T01:06:50.074Z,13.03
2018-08-09T01:09:18.467Z,13.70
2018-08-09T01:11:46.902Z,14.50
2018-08-09T01:14:15.332Z,13.00
2018-08-09T01:16:43.719Z,13.93
2018-08-09T01:19:12.158Z,13.17
2018-08-09T01:21:40.513Z,12.37
2018-08-09T01:24:08.914Z,14.43
2018-08-09T01:26:37.262Z,13.97
2018-08-09T01:29:05.689Z,13.90
2018-08-09T01:31:38.157Z,13.60
2018-08-09T01:34:08.789Z,13.60
2018-08-09T01:36:37.773Z,14.50
2018-08-09T01:39:08.433Z,14.83
2018-08-09T01:41:36.805Z,14.57
2018-08-09T01:44:06.300Z,14.27
2018-08-09T01:46:34.845Z,13.80
2018-08-09T01:49:03.233Z,15.20
2018-08-09T01:51:31.890Z,14.63
2018-08-09T01:54:00.280Z,13.40
2018-08-09T01:56:28.620Z,13.73
2018-08-09T01:58:56.993Z,14.50
2018-08-09T02:01:25.342Z,15.27
2018-08-09T02:03:53.741Z,14.17
2018-08-09T02:06:22.140Z,14.10
2018-08-09T02:08:50.476Z,13.30
2018-08-09T02:11:18.845Z,13.77
2018-08-09T02:13:47.182Z,14.00
2018-08-09T02:16:15.520Z,16.43
2018-08-09T02:18:43.873Z,14.40
2018-08-09T02:21:12.224Z,14.30
2018-08-09T02:23:40.761Z,15.27
2018-08-09T02:26:09.157Z,14.27
2018-08-09T02:28:37.499Z,16.17
2018-08-09T02:31:05.868Z,15.23
2018-08-09T02:33:34.238Z,14.23
2018-08-09T02:36:02.630Z,15.07
2018-08-09T02:38:30.978Z,15.37
2018-08-09T02:40:59.304Z,14.63
2018-08-09T02:43:27.681Z,14.13
2018-08-09T02:45:56.025Z,17.90
2018-08-09T02:48:24.475Z,14.10
2018-08-09T02:50:52.825Z,15.20
2018-08-09T02:53:21.189Z,15.47
2018-08-09T02:55:49.538Z,15.27
2018-08-09T02:58:17.874Z,16.53
2018-08-09T03:00:46.217Z,14.80
2018-08-09T03:03:14.569Z,14.20
2018-08-09T03:05:42.908Z,15.27
2018-08-09T03:08:11.293Z,13.77
2018-08-09T03:10:39.660Z,14.43
2018-08-09T03:13:08.047Z,14.53
2018-08-09T03:15:36.446Z,15.27
2018-08-09T03:18:04.785Z,14.50
2018-08-09T03:20:33.397Z,14.60
2018-08-09T03:23:01.749Z,16.33
2018-08-09T03:25:30.108Z,14.17
2018-08-09T03:27:58.497Z,14.80
2018-08-09T03:30:26.849Z,15.27
2018-08-09T03:32:55.218Z,15.60
2018-08-09T03:35:23.561Z,14.07
2018-08-09T03:37:51.921Z,14.80
2018-08-09T03:40:20.272Z,15.63
2018-08-09T03:42:48.774Z,14.83
2018-08-09T03:45:17.120Z,14.37
2018-08-09T03:47:45.472Z,14.93
2018-08-09T03:50:13.837Z,17.27
2018-08-09T03:52:42.187Z,15.77
2018-08-09T03:55:10.594Z,15.33
2018-08-09T03:57:38.941Z,16.53
2018-08-09T04:00:08.036Z,14.80
2018-08-09T04:02:36.420Z,14.60
2018-08-09T04:05:05.584Z,15.07
2018-08-09T04:07:34.013Z,15.10
2018-08-09T04:10:02.417Z,14.50
2018-08-09T04:12:30.821Z,16.07
2018-08-09T04:14:59.300Z,14.30
2018-08-09T04:17:27.643Z,14.87
2018-08-09T04:19:56.020Z,15.67
2018-08-09T04:22:24.377Z,16.43
2018-08-09T04:24:52.886Z,15.30
2018-08-09T04:27:21.221Z,20.80
2018-08-09T04:29:49.596Z,15.40
2018-08-09T04:32:17.963Z,15.57
2018-08-09T04:34:46.316Z,15.20
2018-08-09T04:37:14.667Z,18.83
2018-08-09T04:39:43.052Z,15.70
2018-08-09T04:42:11.437Z,15.93
2018-08-09T04:44:39.845Z,18.13
2018-08-09T04:47:08.220Z,16.40
2018-08-09T04:49:36.581Z,16.13
2018-08-09T04:52:04.993Z,17.83
2018-08-09T04:54:33.372Z,14.73
2018-08-09T04:57:01.742Z,14.80
2018-08-09T04:59:30.128Z,15.80
2018-08-09T05:01:58.560Z,16.20
2018-08-09T05:04:26.941Z,16.50
2018-08-09T05:06:55.331Z,15.03
2018-08-09T05:09:23.713Z,14.33
2018-08-09T05:11:52.216Z,15.70
2018-08-09T05:14:20.567Z,14.67
2018-08-09T05:16:48.918Z,16.40
2018-08-09T05:19:17.284Z,16.87
2018-08-09T05:21:45.653Z,16.47
2018-08-09T05:24:14.038Z,15.27
2018-08-09T05:26:42.407Z,16.70
2018-08-09T05:29:10.756Z,15.13
2018-08-09T05:31:39.120Z,15.10
2018-08-09T05:34:07.529Z,15.87
2018-08-09T05:36:35.832Z,16.57
2018-08-09T05:39:06.488Z,16.17
2018-08-09T05:41:34.818Z,15.10
2018-08-09T05:44:03.317Z,15.23
2018-08-09T05:46:31.645Z,35.43
2018-08-09T05:48:59.964Z,28.63
2018-08-09T05:51:28.305Z,18.10
2018-08-09T05:53:56.668Z,16.07
2018-08-09T05:56:25.025Z,15.53
2018-08-09T05:58:53.418Z,25.60
2018-08-09T06:01:21.744Z,26.90
2018-08-09T06:03:50.221Z,16.53
2018-08-09T06:06:18.563Z,15.87
2018-08-09T06:08:46.889Z,15.77
2018-08-09T06:11:15.253Z,15.97
2018-08-09T06:13:43.581Z,15.70
2018-08-09T06:16:11.997Z,15.07
2018-08-09T06:18:40.333Z,14.70
2018-08-09T06:21:08.693Z,14.60
2018-08-09T06:23:37.100Z,20.00
2018-08-09T06:26:05.441Z,15.60
2018-08-09T06:28:33.810Z,15.30
2018-08-09T06:31:02.185Z,16.73
2018-08-09T06:33:30.644Z,15.43
2018-08-09T06:35:58.933Z,15.97
2018-08-09T06:38:27.277Z,15.83
2018-08-09T06:40:55.605Z,17.50
2018-08-09T06:43:24.109Z,17.27
2018-08-09T06:45:52.460Z,15.80
2018-08-09T06:48:20.785Z,15.83
2018-08-09T06:50:49.156Z,15.57
2018-08-09T06:53:17.464Z,15.40
2018-08-09T06:55:45.973Z,16.40
2018-08-09T06:58:14.312Z,15.50
2018-08-09T07:00:42.640Z,17.10
2018-08-09T07:03:11.157Z,14.60
2018-08-09T07:05:39.661Z,15.57
2018-08-09T07:08:08.049Z,16.03
2018-08-09T07:10:36.541Z,15.17
2018-08-09T07:13:05.030Z,14.83
2018-08-09T07:15:33.380Z,12.97
2018-08-09T07:18:01.784Z,14.40
2018-08-09T07:20:30.174Z,13.67
2018-08-09T07:22:58.489Z,13.43
2018-08-09T07:25:26.845Z,13.13
2018-08-09T07:27:55.184Z,12.63
2018-08-09T07:30:23.541Z,11.97
2018-08-09T07:32:51.910Z,11.23
2018-08-09T07:35:20.245Z,12.43
2018-08-09T07:37:48.633Z,13.47
2018-08-09T07:40:16.972Z,12.83
2018-08-09T07:42:45.360Z,12.40
2018-08-09T07:45:14.285Z,13.90
2018-08-09T07:47:42.688Z,12.07
2018-08-09T07:50:11.306Z,14.03
2018-08-09T07:52:39.786Z,12.35
2018-08-09T07:55:09.941Z,17.25
2018-08-09T07:57:38.821Z,10.97
2018-08-09T08:00:09.537Z,10.53
2018-08-09T08:02:38.078Z,11.23
2018-08-09T08:05:06.757Z,10.10
2018-08-09T08:07:35.250Z,10.40
2018-08-09T08:10:03.828Z,10.40
2018-08-09T08:12:32.185Z,12.03
2018-08-09T08:15:00.587Z,13.50
2018-08-09T08:17:28.906Z,14.17
2018-08-09T08:19:57.278Z,11.70
2018-08-09T08:22:25.640Z,10.90
2018-08-09T08:24:53.980Z,10.77
2018-08-09T08:27:22.321Z,10.73
2018-08-09T08:29:50.905Z,10.07
2018-08-09T08:32:19.262Z,14.63
2018-08-09T08:34:47.590Z,10.53
2018-08-09T08:37:15.945Z,14.00
2018-08-09T08:39:44.296Z,11.43
2018-08-09T08:42:12.812Z,18.83
2018-08-09T08:44:41.209Z,18.17
2018-08-09T08:47:09.602Z,10.77
2018-08-09T08:49:37.996Z,14.10
2018-08-09T08:52:06.361Z,13.23
2018-08-09T08:54:34.716Z,11.80
2018-08-09T08:57:03.306Z,18.83
2018-08-09T08:59:31.660Z,12.10
2018-08-09T09:01:59.981Z,11.70
2018-08-09T09:04:28.456Z,9.90
2018-08-09T09:06:56.710Z,14.60
2018-08-09T09:09:25.012Z,14.40
2018-08-09T09:11:53.424Z,15.33
2018-08-09T09:14:21.806Z,11.73
2018-08-09T09:16:50.166Z,14.57
2018-08-09T09:19:18.516Z,12.40
2018-08-09T09:21:47.116Z,13.03
2018-08-09T09:24:15.441Z,13.70
2018-08-09T09:26:43.789Z,14.33
2018-08-09T09:29:12.405Z,13.53
2018-08-09T09:31:40.845Z,12.57
2018-08-09T09:34:09.249Z,10.50
2018-08-09T09:36:37.721Z,13.13
2018-08-09T09:39:08.308Z,10.47
2018-08-09T09:41:36.645Z,11.60
2018-08-09T09:44:05.177Z,13.30
2018-08-09T09:46:33.529Z,10.57
2018-08-09T09:49:01.857Z,13.87
2018-08-09T09:51:30.480Z,12.70
2018-08-09T09:53:59.137Z,14.00
2018-08-09T09:56:27.456Z,12.13
2018-08-09T09:58:55.949Z,18.07
2018-08-09T10:01:29.601Z,10.97
2018-08-09T10:03:58.118Z,13.87
2018-08-09T10:06:26.469Z,17.77
2018-08-09T10:08:54.800Z,11.30
2018-08-09T10:11:23.164Z,18.27
2018-08-09T10:13:51.489Z,13.33
2018-08-09T10:16:19.825Z,13.40
2018-08-09T10:18:48.272Z,11.00
2018-08-09T10:21:16.589Z,12.50
2018-08-09T10:23:45.201Z,12.77
2018-08-09T10:26:13.557Z,14.40
2018-08-09T10:28:41.920Z,13.60
2018-08-09T10:31:10.650Z,13.80
2018-08-09T10:33:39.120Z,11.53
2018-08-09T10:36:07.474Z,12.53
2018-08-09T10:38:35.846Z,12.90
2018-08-09T10:41:04.230Z,11.30
2018-08-09T10:43:32.563Z,10.77
2018-08-09T10:46:01.122Z,9.57
2018-08-09T10:48:29.561Z,11.07
2018-08-09T10:50:57.905Z,13.10
2018-08-09T10:53:26.261Z,10.17
2018-08-09T10:55:54.624Z,15.83
2018-08-09T10:58:22.971Z,11.03
2018-08-09T11:00:51.448Z,13.83
2018-08-09T11:03:19.776Z,9.40
2018-08-09T11:05:48.102Z,15.43
2018-08-09T11:08:16.485Z,20.63
2018-08-09T11:10:44.836Z,13.87
2018-08-09T11:13:13.168Z,11.03
2018-08-09T11:15:41.516Z,18.40
2018-08-09T11:18:10.049Z,14.30
2018-08-09T11:20:38.397Z,11.20
2018-08-09T11:23:06.783Z,11.57
2018-08-09T11:25:35.153Z,11.63
2018-08-09T11:28:03.513Z,11.87
2018-08-09T11:30:32.065Z,13.60
2018-08-09T11:33:00.392Z,11.27
2018-08-09T11:35:28.717Z,12.27
2018-08-09T11:37:57.085Z,12.10
2018-08-09T11:40:25.418Z,11.03
2018-08-09T11:42:53.956Z,12.63
2018-08-09T11:45:22.262Z,13.30
2018-08-09T11:47:50.580Z,14.93
2018-08-09T11:50:18.936Z,11.63
2018-08-09T11:52:47.264Z,11.23
2018-08-09T11:55:15.769Z,10.00
2018-08-09T11:57:44.117Z,9.50
2018-08-09T12:00:12.471Z,12.60
2018-08-09T12:02:40.977Z,12.93
2018-08-09T12:05:09.404Z,10.10
2018-08-09T12:07:37.772Z,9.50
2018-08-09T12:10:06.169Z,12.33
2018-08-09T12:12:34.481Z,12.50
2018-08-09T12:15:03.168Z,9.60
2018-08-09T12:17:31.465Z,9.80
2018-08-09T12:19:59.823Z,10.20
2018-08-09T12:22:28.220Z,8.87
2018-08-09T12:24:56.612Z,13.23
2018-08-09T12:27:25.177Z,10.17
2018-08-09T12:29:53.566Z,9.20
2018-08-09T12:32:21.933Z,11.07
2018-08-09T12:34:50.549Z,9.00
2018-08-09T12:37:18.897Z,9.40
2018-08-09T12:39:47.287Z,9.53
2018-08-09T12:42:15.684Z,10.77
2018-08-09T12:44:44.105Z,8.47
2018-08-09T12:47:12.504Z,9.10
2018-08-09T12:49:40.945Z,14.13
2018-08-09T12:52:09.328Z,9.83
2018-08-09T12:54:37.785Z,13.07
2018-08-09T12:57:06.156Z,10.53
2018-08-09T12:59:34.533Z,9.80
2018-08-09T13:02:03.116Z,11.07
2018-08-09T13:04:31.453Z,10.47
2018-08-09T13:06:59.777Z,10.47
2018-08-09T13:09:28.328Z,10.43
2018-08-09T13:11:56.703Z,10.27
2018-08-09T13:14:25.074Z,12.27
2018-08-09T13:16:53.458Z,9.00
2018-08-09T13:19:21.821Z,11.23
2018-08-09T13:21:50.360Z,19.60
2018-08-09T13:24:18.737Z,20.00
2018-08-09T13:26:47.077Z,20.73
2018-08-09T13:29:15.510Z,26.37
2018-08-09T13:31:43.864Z,22.57
2018-08-09T13:34:12.316Z,11.47
2018-08-09T13:36:40.729Z,15.33
2018-08-09T13:39:11.772Z,13.90
2018-08-09T13:41:40.194Z,10.27
2018-08-09T13:44:08.669Z,8.37
2018-08-09T13:46:37.066Z,10.30
2018-08-09T13:49:05.704Z,4.87
2018-08-09T13:51:34.130Z,4.07
2018-08-09T13:54:02.666Z,9.27
2018-08-09T13:56:31.012Z,5.17
2018-08-09T13:58:59.329Z,6.70
2018-08-09T14:01:28.575Z,5.60
2018-08-09T14:03:56.995Z,4.20
2018-08-09T14:06:25.353Z,5.83
2018-08-09T14:08:53.780Z,8.80
2018-08-09T14:11:22.125Z,6.20
2018-08-09T14:13:50.456Z,9.40
2018-08-09T14:16:19.714Z,7.47
2018-08-09T14:18:48.059Z,7.90
2018-08-09T14:21:16.453Z,10.10
2018-08-09T14:23:44.984Z,7.73
2018-08-09T14:26:13.349Z,3.87
2018-08-09T14:28:41.736Z,7.30
2018-08-09T14:31:10.130Z,5.70
2018-08-09T14:33:38.500Z,9.27
2018-08-09T14:36:06.920Z,4.30
2018-08-09T14:38:35.319Z,4.63
2018-08-09T14:41:03.705Z,3.70
2018-08-09T14:43:32.125Z,4.93
2018-08-09T14:46:00.450Z,5.13
2018-08-09T14:48:28.817Z,8.00
2018-08-09T14:50:57.181Z,4.13
2018-08-09T14:53:25.508Z,3.30
2018-08-09T14:55:53.912Z,4.27
2018-08-09T14:58:22.281Z,4.27
2018-08-09T15:00:50.665Z,5.60
2018-08-09T15:03:19.024Z,6.30
2018-08-09T15:05:47.385Z,4.00
2018-08-09T15:08:15.753Z,3.80
2018-08-09T15:10:44.317Z,5.83
2018-08-09T15:13:12.677Z,4.90
2018-08-09T15:15:41.092Z,6.13
2018-08-09T15:18:09.425Z,8.03
2018-08-09T15:20:37.820Z,6.10
2018-08-09T15:23:06.166Z,4.30
2018-08-09T15:25:34.577Z,7.90
2018-08-09T15:28:02.950Z,6.23
2018-08-09T15:30:31.545Z,9.20
2018-08-09T15:32:59.885Z,5.00
2018-08-09T15:35:28.205Z,6.67
2018-08-09T15:37:56.654Z,4.00
2018-08-09T15:40:24.953Z,5.27
2018-08-09T15:42:53.293Z,5.50
2018-08-09T15:45:21.645Z,6.20
2018-08-09T15:47:50.063Z,7.63
2018-08-09T15:50:19.684Z,6.13
2018-08-09T15:52:48.042Z,5.83
2018-08-09T15:55:17.589Z,10.10
2018-08-09T15:57:46.112Z,5.00
2018-08-09T16:00:18.053Z,4.13
2018-08-09T16:02:46.662Z,2.70
2018-08-09T16:05:15.034Z,4.00
2018-08-09T16:07:43.605Z,4.77
2018-08-09T16:10:13.650Z,7.70
2018-08-09T16:12:42.048Z,4.00
2018-08-09T16:15:13.528Z,4.50
2018-08-09T16:17:42.070Z,3.00
2018-08-09T16:20:11.516Z,3.10
2018-08-09T16:22:40.262Z,5.90
2018-08-09T16:25:10.649Z,2.80
2018-08-09T16:27:39.109Z,2.50
2018-08-09T16:30:11.617Z,2.80
2018-08-09T16:32:40.328Z,6.30
2018-08-09T16:35:08.781Z,2.70
2018-08-09T16:37:37.473Z,4.97
2018-08-09T16:40:06.497Z,4.33
2018-08-09T16:42:34.883Z,4.20
2018-08-09T16:45:03.426Z,3.50
2018-08-09T16:47:32.025Z,4.33
2018-08-09T16:50:00.462Z,5.33
2018-08-09T16:52:28.838Z,4.80
2018-08-09T16:54:57.394Z,6.23
2018-08-09T16:57:25.773Z,2.93
2018-08-09T16:59:54.140Z,3.07
2018-08-09T17:02:22.521Z,4.40
2018-08-09T17:04:50.903Z,4.27
2018-08-09T17:07:19.505Z,4.10
2018-08-09T17:09:47.872Z,3.83
2018-08-09T17:12:16.205Z,4.57
2018-08-09T17:14:44.613Z,5.87
2018-08-09T17:17:12.979Z,3.17
2018-08-09T17:19:41.369Z,2.90
2018-08-09T17:22:09.801Z,7.00
2018-08-09T17:24:38.326Z,4.10
2018-08-09T17:27:06.754Z,3.13
2018-08-09T17:29:35.158Z,3.90
2018-08-09T17:32:03.498Z,4.07
2018-08-09T17:34:31.817Z,4.97
2018-08-09T17:37:00.597Z,3.53
2018-08-09T17:39:29.025Z,5.93
2018-08-09T17:41:57.433Z,3.33
2018-08-09T17:44:25.977Z,5.20
2018-08-09T17:46:54.326Z,5.70
2018-08-09T17:49:22.693Z,4.53
2018-08-09T17:51:51.053Z,4.60
2018-08-09T17:54:19.417Z,4.27
2018-08-09T17:56:47.741Z,4.90
2018-08-09T17:59:16.126Z,4.27
2018-08-09T18:01:44.488Z,5.20
2018-08-09T18:04:12.905Z,3.53
2018-08-09T18:06:41.324Z,6.43
2018-08-09T18:09:10.800Z,4.83
2018-08-09T18:11:39.235Z,3.50
2018-08-09T18:14:07.724Z,4.30
2018-08-09T18:16:36.362Z,5.27
2018-08-09T18:19:04.737Z,3.33
2018-08-09T18:21:33.124Z,3.83
2018-08-09T18:24:01.537Z,3.97
2018-08-09T18:26:30.045Z,3.50
2018-08-09T18:28:58.442Z,7.40
2018-08-09T18:31:26.805Z,3.23
2018-08-09T18:33:55.253Z,3.83
2018-08-09T18:36:23.620Z,9.43
2018-08-09T18:38:52.225Z,4.77
2018-08-09T18:41:20.584Z,3.43
2018-08-09T18:43:48.979Z,2.77
2018-08-09T18:46:17.373Z,4.17
2018-08-09T18:48:45.752Z,3.17
2018-08-09T18:51:14.113Z,3.40
2018-08-09T18:53:42.517Z,3.00
2018-08-09T18:56:11.269Z,3.93
2018-08-09T18:58:39.652Z,3.40
2018-08-09T19:01:08.563Z,3.67
2018-08-09T19:03:36.982Z,4.80
2018-08-09T19:06:05.652Z,2.77
2018-08-09T19:08:34.050Z,2.83
2018-08-09T19:11:02.430Z,3.93
2018-08-09T19:13:30.837Z,5.20
2018-08-09T19:15:59.969Z,3.40
2018-08-09T19:18:28.382Z,3.50
2018-08-09T19:20:56.799Z,20.30
2018-08-09T19:23:25.186Z,6.07
2018-08-09T19:25:53.553Z,3.00
2018-08-09T19:28:21.933Z,3.67
2018-08-09T19:30:50.299Z,3.47
2018-08-09T19:33:18.676Z,3.70
2018-08-09T19:35:47.050Z,3.77
2018-08-09T19:38:15.412Z,3.17
2018-08-09T19:40:43.845Z,2.57
2018-08-09T19:43:12.243Z,3.70
2018-08-09T19:45:40.619Z,5.67
2018-08-09T19:48:09.064Z,4.00
2018-08-09T19:50:37.457Z,4.33
2018-08-09T19:53:05.908Z,3.83
2018-08-09T19:55:34.283Z,3.57
2018-08-09T19:58:02.704Z,4.90
2018-08-09T20:00:31.441Z,3.33
2018-08-09T20:02:59.859Z,3.07
2018-08-09T20:05:28.247Z,2.53
2018-08-09T20:07:58.189Z,2.73
2018-08-09T20:10:26.594Z,2.60
2018-08-09T20:12:55.179Z,2.90
2018-08-09T20:15:24.468Z,5.60
2018-08-09T20:17:52.853Z,3.50
2018-08-09T20:20:22.791Z,2.83
2018-08-09T20:22:51.237Z,2.83
2018-08-09T20:25:19.640Z,4.60
2018-08-09T20:27:48.113Z,4.40
2018-08-09T20:30:17.470Z,4.17
2018-08-09T20:32:46.385Z,2.93
2018-08-09T20:35:18.146Z,2.47
2018-08-09T20:37:47.054Z,8.20
2018-08-09T20:40:57.152Z,5.67
2018-08-09T20:43:25.755Z,4.00
2018-08-09T20:45:54.132Z,6.93
2018-08-09T20:48:22.522Z,5.07
2018-08-09T20:50:50.911Z,2.30
2018-08-09T20:53:19.275Z,2.40
2018-08-09T20:55:47.801Z,2.40
2018-08-09T20:58:16.193Z,2.97
2018-08-09T21:00:44.582Z,2.10
2018-08-09T21:03:13.027Z,2.80
2018-08-09T21:05:41.390Z,4.57
2018-08-09T21:08:09.837Z,1.80
2018-08-09T21:10:38.269Z,2.97
2018-08-09T21:13:07.093Z,7.87
2018-08-09T21:15:35.499Z,2.20
2018-08-09T21:18:03.881Z,3.30
2018-08-09T21:20:32.204Z,2.63
2018-08-09T21:23:00.713Z,4.53
2018-08-09T21:25:29.080Z,1.87
2018-08-09T21:27:57.469Z,2.27
2018-08-09T21:30:25.857Z,2.20
2018-08-09T21:32:54.213Z,1.63
2018-08-09T21:35:22.610Z,2.00
2018-08-09T21:37:51.037Z,1.80
2018-08-09T21:40:19.421Z,1.50
2018-08-09T21:42:47.847Z,2.10
2018-08-09T21:45:17.553Z,3.17
2018-08-09T21:47:45.992Z,1.73
2018-08-09T21:50:16.264Z,1.70
2018-08-09T21:52:44.716Z,1.70
2018-08-09T21:55:13.755Z,3.03
2018-08-09T21:57:43.196Z,1.50
2018-08-09T22:00:22.607Z,1.60
2018-08-09T22:02:51.453Z,3.70
2018-08-09T22:06:24.502Z,1.70
2018-08-09T22:08:58.149Z,1.63
2018-08-09T22:11:31.923Z,1.60
2018-08-09T22:14:05.616Z,4.13
2018-08-09T22:17:42.832Z,1.43
2018-08-09T22:20:16.461Z,4.20
2018-08-09T22:22:44.832Z,7.30
2018-08-09T22:25:13.243Z,2.23
2018-08-09T22:27:41.605Z,1.70
2018-08-09T22:30:13.507Z,3.00
2018-08-09T22:32:41.874Z,1.90
2018-08-09T22:35:10.254Z,1.30
2018-08-09T22:37:38.648Z,2.60
2018-08-09T22:40:07.005Z,1.40
2018-08-09T22:42:35.385Z,1.70
2018-08-09T22:45:03.776Z,3.83
2018-08-09T22:47:32.174Z,1.70
2018-08-09T22:50:00.601Z,1.67
2018-08-09T22:52:28.959Z,1.67
2018-08-09T22:54:57.357Z,2.90
2018-08-09T22:57:25.778Z,3.20
2018-08-09T22:59:54.173Z,2.30
2018-08-09T23:02:22.518Z,2.20
2018-08-09T23:04:50.841Z,2.10
2018-08-09T23:07:19.220Z,1.80
2018-08-09T23:09:47.586Z,1.97
2018-08-09T23:12:16.113Z,1.63
2018-08-09T23:14:44.489Z,2.50
2018-08-09T23:17:12.889Z,2.03
2018-08-09T23:19:41.394Z,2.07
2018-08-09T23:22:09.777Z,2.23
2018-08-09T23:24:38.314Z,1.67
2018-08-09T23:27:06.720Z,2.20
2018-08-09T23:29:35.155Z,1.70
2018-08-09T23:32:03.577Z,2.37
2018-08-09T23:34:31.960Z,7.80
2018-08-09T23:37:00.310Z,1.50
2018-08-09T23:39:28.821Z,1.57
2018-08-09T23:41:57.192Z,4.53
2018-08-09T23:44:25.547Z,1.57
2018-08-09T23:46:53.925Z,1.70
2018-08-09T23:49:22.269Z,3.80
2018-08-09T23:51:50.634Z,1.50
2018-08-09T23:54:18.981Z,1.47
2018-08-09T23:56:47.348Z,1.40
2018-08-09T23:59:15.669Z,3.70
